Time;durP1;ratioP1;P1;durP2;ratioP2;P2;SDS_P1;SDS_P2;PMS_P1;PMS_P2;Temp;Humidity;BMP_temperature;BMP_pressure;BME280_temperature;BME280_humidity;BME280_pressure;Samples;Min_cycle;Max_cycle;Signal;HPM_P1;HPM_P2
2021/07/16 00:02:10;;;;;;;14.60;13.20;;;21.30;99.90;;;;;;4918654;29;20248;-70
2021/07/16 00:04:36;;;;;;;22.47;14.07;;;21.30;99.90;;;;;;4917782;29;20462;-70
2021/07/16 00:07:02;;;;;;;16.77;14.03;;;21.20;99.90;;;;;;4918498;29;20205;-69
2021/07/16 00:09:28;;;;;;;15.13;13.17;;;21.20;99.90;;;;;;4918020;29;20189;-69
2021/07/16 00:11:54;;;;;;;13.73;12.30;;;21.20;99.90;;;;;;4918151;29;21288;-70
2021/07/16 00:14:20;;;;;;;15.77;12.50;;;21.20;99.90;;;;;;4917453;29;20194;-69
2021/07/16 00:16:45;;;;;;;14.90;13.30;;;21.20;99.90;;;;;;4917796;29;20266;-68
2021/07/16 00:19:11;;;;;;;15.00;13.50;;;21.20;99.90;;;;;;4918339;29;20175;-69
2021/07/16 00:21:37;;;;;;;16.50;15.00;;;21.20;99.90;;;;;;4917999;29;20228;-70
2021/07/16 00:24:03;;;;;;;19.20;15.10;;;21.20;99.90;;;;;;4918371;29;20218;-69
2021/07/16 00:26:29;;;;;;;16.50;15.00;;;21.20;99.90;;;;;;4918510;29;20186;-69
2021/07/16 00:28:55;;;;;;;19.37;15.13;;;21.20;99.90;;;;;;4916952;29;20450;-70
2021/07/16 00:31:21;;;;;;;15.60;14.00;;;21.20;99.90;;;;;;4917005;29;20450;-70
2021/07/16 00:33:47;;;;;;;15.30;13.30;;;21.20;99.90;;;;;;4917625;29;20437;-69
2021/07/16 00:36:13;;;;;;;18.17;14.33;;;21.20;99.90;;;;;;4918177;29;20194;-68
2021/07/16 00:38:40;;;;;;;16.87;15.10;;;21.20;99.90;;;;;;4917094;29;20186;-70
2021/07/16 00:41:07;;;;;;;18.40;15.40;;;21.20;99.90;;;;;;4918278;29;20167;-70
2021/07/16 00:43:32;;;;;;;15.30;13.87;;;21.20;99.90;;;;;;4917977;29;20458;-69
2021/07/16 00:45:58;;;;;;;16.67;14.77;;;21.20;99.90;;;;;;4917503;29;20470;-69
2021/07/16 00:48:24;;;;;;;16.37;14.67;;;21.20;99.90;;;;;;4918367;29;20229;-68
2021/07/16 00:50:52;;;;;;;15.80;14.33;;;21.20;99.90;;;;;;4917166;29;20186;-68
2021/07/16 00:53:19;;;;;;;19.17;14.50;;;21.20;99.90;;;;;;4917487;29;20530;-69
2021/07/16 00:55:46;;;;;;;17.63;14.80;;;21.20;99.90;;;;;;4916870;29;20422;-68
2021/07/16 00:58:14;;;;;;;16.17;14.57;;;21.20;99.90;;;;;;4916399;29;20895;-69
2021/07/16 01:00:40;;;;;;;16.03;14.40;;;21.20;99.90;;;;;;4917029;29;20921;-70
2021/07/16 01:03:06;;;;;;;17.27;13.50;;;21.10;99.90;;;;;;4917712;29;20411;-69
2021/07/16 01:05:32;;;;;;;16.80;13.93;;;21.20;99.90;;;;;;4917513;29;20421;-70
2021/07/16 01:07:58;;;;;;;16.33;14.70;;;21.20;99.90;;;;;;4917058;29;20449;-69
2021/07/16 01:10:24;;;;;;;15.70;13.20;;;21.20;99.90;;;;;;4916911;29;20183;-68
2021/07/16 01:12:51;;;;;;;14.17;12.77;;;21.20;99.90;;;;;;4916961;29;20187;-69
2021/07/16 01:15:19;;;;;;;15.77;14.20;;;21.20;99.90;;;;;;4917221;29;20768;-70
2021/07/16 01:17:46;;;;;;;17.20;14.97;;;21.20;99.90;;;;;;4916897;29;20756;-70
2021/07/16 01:20:14;;;;;;;17.70;15.67;;;21.20;99.90;;;;;;4917088;29;20418;-69
2021/07/16 01:22:43;;;;;;;18.50;16.40;;;21.20;99.90;;;;;;4916824;29;20411;-71
2021/07/16 01:25:18;;;;;;;19.50;16.00;;;21.20;99.90;;;;;;4916961;29;20458;-69
2021/07/16 01:27:46;;;;;;;17.00;15.10;;;21.20;99.90;;;;;;4916747;29;20399;-70
2021/07/16 01:30:14;;;;;;;18.97;14.13;;;21.20;99.90;;;;;;4916472;29;20499;-69
2021/07/16 01:32:41;;;;;;;21.03;18.70;;;21.20;99.90;;;;;;4916581;29;20851;-73
2021/07/16 01:35:09;;;;;;;19.13;16.80;;;21.20;99.90;;;;;;4916404;29;20431;-69
2021/07/16 01:37:35;;;;;;;21.00;17.47;;;21.20;99.90;;;;;;4917069;29;20783;-69
2021/07/16 01:40:08;;;;;;;19.77;16.87;;;21.20;99.90;;;;;;4916208;29;20489;-69
2021/07/16 01:42:35;;;;;;;18.13;16.30;;;21.20;99.90;;;;;;4916802;29;20410;-69
2021/07/16 01:45:04;;;;;;;17.77;15.77;;;21.10;99.90;;;;;;4916174;29;20474;-69
2021/07/16 01:47:31;;;;;;;21.47;14.23;;;21.10;99.90;;;;;;4916891;29;20423;-69
2021/07/16 01:49:56;;;;;;;15.40;12.80;;;21.10;99.90;;;;;;4916062;29;20446;-69
2021/07/16 01:52:22;;;;;;;14.00;12.77;;;21.10;99.90;;;;;;4899937;29;20898;-69
2021/07/16 01:54:48;;;;;;;14.37;12.90;;;21.10;99.90;;;;;;4916290;29;20182;-69
2021/07/16 01:57:13;;;;;;;14.50;12.20;;;21.10;99.90;;;;;;4917372;29;20674;-69
2021/07/16 01:59:39;;;;;;;15.37;12.77;;;21.10;99.90;;;;;;4916426;29;20216;-68
2021/07/16 02:02:05;;;;;;;12.90;11.70;;;21.10;99.90;;;;;;4916213;29;20661;-69
2021/07/16 02:04:31;;;;;;;14.57;11.60;;;21.10;99.90;;;;;;4916114;29;20238;-69
2021/07/16 02:06:57;;;;;;;12.97;11.30;;;21.10;99.90;;;;;;4916110;29;20211;-68
2021/07/16 02:09:23;;;;;;;17.80;12.97;;;21.10;99.90;;;;;;4900123;29;20623;-69
2021/07/16 02:11:49;;;;;;;11.90;10.90;;;21.10;99.90;;;;;;4898760;29;20441;-68
2021/07/16 02:14:15;;;;;;;13.27;11.67;;;21.10;99.90;;;;;;4916798;29;20194;-70
2021/07/16 02:16:40;;;;;;;13.30;11.93;;;21.10;99.90;;;;;;4899744;29;20210;-69
2021/07/16 02:19:06;;;;;;;14.70;13.13;;;21.00;99.90;;;;;;4915278;29;20414;-69
2021/07/16 02:21:32;;;;;;;12.83;11.33;;;21.00;99.90;;;;;;4916329;29;20178;-70
2021/07/16 02:23:58;;;;;;;12.27;10.97;;;20.90;99.90;;;;;;4915899;29;20302;-69
2021/07/16 02:26:23;;;;;;;13.40;12.30;;;20.90;99.90;;;;;;4916296;29;20261;-69
2021/07/16 02:28:49;;;;;;;14.80;11.37;;;20.90;99.90;;;;;;4915904;29;20178;-68
2021/07/16 02:31:15;;;;;;;12.87;11.67;;;20.90;99.90;;;;;;4916148;29;20226;-68
2021/07/16 02:33:41;;;;;;;13.37;12.17;;;20.90;99.90;;;;;;4916517;29;20635;-69
2021/07/16 02:36:08;;;;;;;12.90;11.70;;;20.90;99.90;;;;;;4915555;29;20190;-69
2021/07/16 02:38:35;;;;;;;12.70;11.50;;;20.90;99.90;;;;;;4918395;29;20931;-69
2021/07/16 02:41:01;;;;;;;11.57;10.53;;;20.80;99.90;;;;;;4919517;29;20461;-68
2021/07/16 02:43:27;;;;;;;13.00;11.63;;;20.80;99.90;;;;;;4919799;29;20469;-69
2021/07/16 02:45:53;;;;;;;13.50;12.27;;;20.80;99.90;;;;;;4902643;29;20770;-70
2021/07/16 02:48:19;;;;;;;14.57;13.27;;;20.80;99.90;;;;;;4919981;29;20175;-69
2021/07/16 02:50:47;;;;;;;13.73;12.53;;;20.70;99.90;;;;;;4919551;29;20421;-70
2021/07/16 02:53:15;;;;;;;14.00;12.60;;;20.70;99.90;;;;;;4920120;29;20445;-69
2021/07/16 02:55:41;;;;;;;14.07;12.67;;;20.70;99.90;;;;;;4919836;29;20437;-68
2021/07/16 02:58:08;;;;;;;12.80;11.47;;;20.60;99.90;;;;;;4919111;29;20426;-69
2021/07/16 03:00:35;;;;;;;15.10;12.67;;;20.70;99.90;;;;;;4919834;29;20526;-69
2021/07/16 03:03:01;;;;;;;14.43;12.93;;;20.60;99.90;;;;;;4919197;29;20834;-67
2021/07/16 03:05:37;;;;;;;14.30;12.90;;;20.60;99.90;;;;;;4919952;29;20433;-69
2021/07/16 03:08:06;;;;;;;14.53;13.17;;;20.60;99.90;;;;;;4919257;29;20430;-69
2021/07/16 03:10:38;;;;;;;14.33;12.93;;;20.50;99.90;;;;;;4919547;29;20420;-69
2021/07/16 03:13:06;;;;;;;15.23;13.67;;;20.50;99.90;;;;;;4919318;29;20436;-68
2021/07/16 03:15:34;;;;;;;14.53;13.17;;;20.60;99.90;;;;;;4919661;29;20501;-68
2021/07/16 03:17:59;;;;;;;13.00;11.90;;;20.50;99.90;;;;;;4918387;29;20430;-68
2021/07/16 03:20:28;;;;;;;14.20;12.90;;;20.60;99.90;;;;;;4919725;29;20433;-68
2021/07/16 03:22:55;;;;;;;15.23;13.73;;;20.50;99.90;;;;;;4918902;29;20182;-69
2021/07/16 03:25:22;;;;;;;13.70;12.30;;;20.50;99.90;;;;;;4919136;29;20447;-68
2021/07/16 03:27:48;;;;;;;13.30;12.20;;;20.50;99.90;;;;;;4918844;29;20425;-67
2021/07/16 03:30:17;;;;;;;16.63;15.13;;;20.50;99.90;;;;;;4919491;29;20485;-69
2021/07/16 03:32:43;;;;;;;16.90;15.20;;;20.50;99.90;;;;;;4919535;29;20541;-68
2021/07/16 03:35:10;;;;;;;15.50;14.00;;;20.50;99.90;;;;;;4918339;29;20949;-68
2021/07/16 03:37:37;;;;;;;18.50;16.70;;;20.50;99.90;;;;;;4919261;29;20422;-68
2021/07/16 03:40:05;;;;;;;17.83;16.17;;;20.50;99.90;;;;;;4901492;29;20926;-68
2021/07/16 03:42:31;;;;;;;14.43;13.03;;;20.50;99.90;;;;;;4918668;29;20867;-68
2021/07/16 03:44:57;;;;;;;15.47;13.77;;;20.50;99.90;;;;;;4918502;29;20498;-69
2021/07/16 03:47:22;;;;;;;14.10;12.90;;;20.50;99.90;;;;;;4919160;29;20181;-69
2021/07/16 03:49:48;;;;;;;14.23;12.80;;;20.50;99.90;;;;;;4901027;29;20595;-75
2021/07/16 03:52:14;;;;;;;15.80;14.40;;;20.50;99.90;;;;;;4919061;29;20178;-68
2021/07/16 03:54:40;;;;;;;15.83;14.20;;;20.50;99.90;;;;;;4918633;29;20654;-68
2021/07/16 03:57:07;;;;;;;17.33;15.00;;;20.50;99.90;;;;;;4918054;29;20182;-68
2021/07/16 03:59:34;;;;;;;16.23;14.80;;;20.50;99.90;;;;;;4918955;29;20410;-68
2021/07/16 04:02:00;;;;;;;15.53;14.03;;;20.40;99.90;;;;;;4918284;29;20425;-68
2021/07/16 04:04:27;;;;;;;15.40;13.80;;;20.40;99.90;;;;;;4918402;29;20462;-69
2021/07/16 04:06:54;;;;;;;15.77;14.30;;;20.40;99.90;;;;;;4918194;29;20421;-69
2021/07/16 04:09:27;;;;;;;13.93;12.63;;;20.40;99.90;;;;;;4918807;29;20411;-68
2021/07/16 04:12:12;;;;;;;14.63;12.73;;;20.40;99.90;;;;;;4917958;29;20423;-68
2021/07/16 04:14:43;;;;;;;16.67;15.10;;;20.30;99.90;;;;;;4918395;29;20914;-68
2021/07/16 04:17:11;;;;;;;15.13;13.60;;;20.30;99.90;;;;;;4917680;29;21141;-68
2021/07/16 04:19:37;;;;;;;15.57;14.00;;;20.30;99.90;;;;;;4918437;29;20496;-68
2021/07/16 04:22:04;;;;;;;16.77;15.07;;;20.30;99.90;;;;;;4917918;29;20478;-70
2021/07/16 04:24:30;;;;;;;15.70;13.47;;;20.30;99.90;;;;;;4917703;29;20462;-67
2021/07/16 04:26:56;;;;;;;13.87;12.50;;;20.40;99.90;;;;;;4917640;29;20473;-68
2021/07/16 04:29:22;;;;;;;15.57;13.27;;;20.40;99.90;;;;;;4918211;29;20174;-68
2021/07/16 04:31:48;;;;;;;14.53;13.10;;;20.40;99.90;;;;;;4917838;29;20238;-68
2021/07/16 04:34:13;;;;;;;14.43;12.93;;;20.40;99.90;;;;;;4885304;29;20187;-68
2021/07/16 04:36:39;;;;;;;14.83;13.23;;;20.40;99.90;;;;;;4918120;29;20433;-69
2021/07/16 04:39:05;;;;;;;14.73;13.17;;;20.40;99.90;;;;;;4916477;29;20206;-68
2021/07/16 04:41:31;;;;;;;15.60;14.03;;;20.40;99.90;;;;;;4917204;29;20187;-69
2021/07/16 04:43:57;;;;;;;15.23;13.77;;;20.40;99.90;;;;;;4899651;29;20674;-69
2021/07/16 04:46:23;;;;;;;15.73;14.33;;;20.40;99.90;;;;;;4917388;29;20193;-69
2021/07/16 04:48:55;;;;;;;15.10;13.53;;;20.40;99.90;;;;;;4917547;29;20269;-68
2021/07/16 04:51:31;;;;;;;19.00;16.00;;;20.40;99.90;;;;;;4917798;29;20462;-68
2021/07/16 04:53:59;;;;;;;17.80;15.90;;;20.40;99.90;;;;;;4916600;29;20827;-69
2021/07/16 04:56:25;;;;;;;19.07;17.20;;;20.40;99.90;;;;;;4917394;29;20756;-69
2021/07/16 04:58:52;;;;;;;17.13;15.53;;;20.40;99.90;;;;;;4917361;29;20525;-69
2021/07/16 05:01:21;;;;;;;16.83;14.87;;;20.40;99.90;;;;;;4916424;29;20501;-69
2021/07/16 05:03:47;;;;;;;14.97;13.47;;;20.40;99.90;;;;;;4917705;29;20496;-67
2021/07/16 05:06:13;;;;;;;16.20;14.80;;;20.40;99.90;;;;;;4916653;29;20426;-68
2021/07/16 05:08:40;;;;;;;16.03;14.33;;;20.40;99.90;;;;;;4917695;29;20450;-69
2021/07/16 05:11:07;;;;;;;15.97;14.40;;;20.40;99.90;;;;;;4917133;29;20442;-69
2021/07/16 05:13:36;;;;;;;15.43;13.90;;;20.40;99.90;;;;;;4917917;29;20766;-68
2021/07/16 05:16:05;;;;;;;16.77;15.17;;;20.40;99.90;;;;;;4916763;29;20406;-68
2021/07/16 05:18:32;;;;;;;16.30;14.77;;;20.40;99.90;;;;;;4917486;29;20760;-68
2021/07/16 05:20:58;;;;;;;15.43;14.13;;;20.40;99.90;;;;;;4916733;29;20516;-68
2021/07/16 05:23:24;;;;;;;17.30;15.60;;;20.40;99.90;;;;;;4917446;29;20794;-68
2021/07/16 05:25:50;;;;;;;16.10;14.53;;;20.30;99.90;;;;;;4917412;29;20469;-68
2021/07/16 05:28:16;;;;;;;16.47;14.90;;;20.40;99.90;;;;;;4916636;29;20977;-68
2021/07/16 05:30:42;;;;;;;19.33;17.63;;;20.40;99.90;;;;;;4916079;29;20418;-68
2021/07/16 05:33:08;;;;;;;16.47;14.97;;;20.30;99.90;;;;;;4915860;29;20763;-68
2021/07/16 05:35:34;;;;;;;16.60;13.53;;;20.30;99.90;;;;;;4916552;29;20186;-68
2021/07/16 05:37:59;;;;;;;16.70;15.20;;;20.30;99.90;;;;;;4915815;29;20572;-68
2021/07/16 05:40:26;;;;;;;18.70;13.83;;;20.30;99.90;;;;;;4916153;29;20182;-68
2021/07/16 05:42:52;;;;;;;14.07;12.57;;;20.30;99.90;;;;;;4916693;29;20182;-68
2021/07/16 05:45:18;;;;;;;17.63;14.33;;;20.40;99.90;;;;;;4915165;29;21161;-68
2021/07/16 05:47:43;;;;;;;13.40;12.00;;;20.40;99.90;;;;;;4916552;29;20449;-73
2021/07/16 05:50:09;;;;;;;16.10;14.80;;;20.40;99.90;;;;;;4915461;29;20459;-70
2021/07/16 05:52:35;;;;;;;16.43;14.60;;;20.50;99.90;;;;;;4899391;29;20186;-79
2021/07/16 05:55:02;;;;;;;15.20;13.90;;;20.80;99.90;;;;;;4915463;29;20426;-79
2021/07/16 05:57:28;;;;;;;13.67;12.37;;;20.90;99.90;;;;;;4916407;29;20190;-79
2021/07/16 05:59:54;;;;;;;14.57;13.27;;;21.10;99.90;;;;;;4915935;29;20795;-79
2021/07/16 06:02:19;;;;;;;12.90;11.70;;;21.30;99.90;;;;;;4915209;29;20414;-80
2021/07/16 06:04:46;;;;;;;16.40;14.80;;;21.40;99.90;;;;;;4898964;29;20554;-79
2021/07/16 06:07:12;;;;;;;14.47;13.13;;;21.50;99.90;;;;;;4916161;29;20183;-78
2021/07/16 06:09:37;;;;;;;14.77;13.37;;;21.60;99.90;;;;;;4915809;29;20441;-80
2021/07/16 06:12:03;;;;;;;15.20;13.90;;;21.70;99.90;;;;;;4915293;29;20190;-80
2021/07/16 06:14:30;;;;;;;14.73;13.30;;;21.80;99.90;;;;;;4916335;29;20197;-80
2021/07/16 06:16:56;;;;;;;16.40;14.90;;;21.90;99.90;;;;;;4916204;29;20414;-80
2021/07/16 06:19:23;;;;;;;17.57;15.73;;;21.90;99.90;;;;;;4898769;29;20410;-80
2021/07/16 06:21:49;;;;;;;15.83;14.27;;;21.90;99.90;;;;;;4899181;29;20517;-80
2021/07/16 06:24:15;;;;;;;18.03;16.17;;;22.00;99.90;;;;;;4915305;29;20517;-80
2021/07/16 06:26:41;;;;;;;16.50;15.07;;;22.00;99.90;;;;;;4916097;29;20803;-80
2021/07/16 06:29:07;;;;;;;18.83;17.00;;;22.10;99.90;;;;;;4914962;29;20776;-81
2021/07/16 06:31:34;;;;;;;18.13;15.30;;;22.10;99.90;;;;;;4915972;29;20230;-81
2021/07/16 06:34:01;;;;;;;16.57;14.93;;;22.10;99.90;;;;;;4915187;29;20438;-80
2021/07/16 06:36:27;;;;;;;16.87;15.27;;;22.20;99.90;;;;;;4916576;29;20926;-80
2021/07/16 06:38:52;;;;;;;14.87;13.37;;;22.20;99.90;;;;;;4915809;29;20434;-72
2021/07/16 06:41:18;;;;;;;17.13;14.70;;;22.30;99.90;;;;;;4914874;29;20182;-73
2021/07/16 06:43:45;;;;;;;17.57;15.80;;;22.30;99.90;;;;;;4915206;29;20210;-71
2021/07/16 06:46:12;;;;;;;14.67;13.17;;;22.30;99.90;;;;;;4914200;29;20458;-72
2021/07/16 06:48:42;;;;;;;16.70;15.03;;;22.30;99.90;;;;;;4898456;29;20423;-71
2021/07/16 06:51:10;;;;;;;15.03;13.30;;;22.20;99.90;;;;;;4914241;29;20443;-73
2021/07/16 06:53:36;;;;;;;17.93;15.80;;;22.00;99.90;;;;;;4913789;29;20442;-72
2021/07/16 06:56:02;;;;;;;17.07;15.30;;;21.90;99.90;;;;;;4897757;29;20414;-72
2021/07/16 06:58:28;;;;;;;16.80;13.33;;;21.80;99.90;;;;;;4915243;29;20427;-72
2021/07/16 07:00:54;;;;;;;16.30;14.73;;;21.60;99.90;;;;;;4912301;29;20773;-70
2021/07/16 07:03:20;;;;;;;15.93;12.13;;;21.40;99.90;;;;;;4914868;29;20407;-72
2021/07/16 07:05:46;;;;;;;15.87;13.30;;;21.30;99.90;;;;;;4915507;29;20425;-71
2021/07/16 07:08:11;;;;;;;15.10;13.60;;;21.10;99.90;;;;;;4915436;29;20433;-71
2021/07/16 07:10:37;;;;;;;12.73;11.53;;;21.00;99.90;;;;;;4915681;29;20182;-71
2021/07/16 07:13:05;;;;;;;17.37;13.47;;;20.90;99.90;;;;;;4916214;29;20186;-72
2021/07/16 07:15:31;;;;;;;17.00;14.13;;;20.90;99.90;;;;;;4934968;29;20186;-71
2021/07/16 07:17:57;;;;;;;15.47;13.03;;;20.80;99.90;;;;;;4918520;29;20435;-71
2021/07/16 07:20:23;;;;;;;17.20;14.03;;;20.70;99.90;;;;;;4915043;29;20422;-71
2021/07/16 07:22:48;;;;;;;15.87;14.03;;;20.70;99.90;;;;;;4915841;29;20186;-71
2021/07/16 07:25:14;;;;;;;20.47;15.20;;;20.70;99.90;;;;;;4917675;29;20210;-72
2021/07/16 07:27:40;;;;;;;14.40;12.80;;;20.60;99.90;;;;;;4918707;29;20278;-71
2021/07/16 07:30:07;;;;;;;16.90;15.07;;;20.60;99.90;;;;;;4918718;29;20210;-72
2021/07/16 07:32:33;;;;;;;14.23;12.77;;;20.60;99.90;;;;;;4919404;29;20458;-71
2021/07/16 07:34:59;;;;;;;14.13;12.73;;;20.60;99.90;;;;;;4919423;29;20501;-71
2021/07/16 07:37:25;;;;;;;15.30;13.20;;;20.60;99.90;;;;;;4918642;29;20509;-71
2021/07/16 07:39:50;;;;;;;15.77;13.20;;;20.50;99.90;;;;;;4919237;29;20265;-71
2021/07/16 07:42:21;;;;;;;16.53;14.77;;;20.50;99.90;;;;;;4918378;29;20677;-71
2021/07/16 07:44:47;;;;;;;14.13;12.63;;;20.50;99.90;;;;;;4902899;29;20281;-71
2021/07/16 07:47:13;;;;;;;13.70;12.37;;;20.50;99.90;;;;;;4901359;29;20502;-71
2021/07/16 07:49:39;;;;;;;15.20;11.67;;;20.40;99.90;;;;;;4919072;29;20987;-71
2021/07/16 07:52:06;;;;;;;14.07;12.13;;;20.40;99.90;;;;;;4918503;29;20187;-71
2021/07/16 07:54:33;;;;;;;15.43;13.03;;;20.40;99.90;;;;;;4918938;29;20273;-70
2021/07/16 07:56:59;;;;;;;15.50;13.33;;;20.40;99.90;;;;;;4922915;29;20831;-70
2021/07/16 07:59:25;;;;;;;13.87;12.43;;;20.40;99.90;;;;;;4917798;29;20817;-70
2021/07/16 08:01:51;;;;;;;15.00;13.50;;;20.40;99.90;;;;;;4918247;29;20434;-70
2021/07/16 08:04:17;;;;;;;14.53;13.07;;;20.40;99.90;;;;;;4917966;29;20214;-70
2021/07/16 08:06:44;;;;;;;14.13;12.50;;;20.40;99.90;;;;;;4901617;29;20269;-70
2021/07/16 08:09:10;;;;;;;18.40;12.00;;;20.40;99.90;;;;;;4917696;29;20842;-71
2021/07/16 08:11:36;;;;;;;17.93;12.50;;;20.40;99.90;;;;;;4918370;29;20423;-71
2021/07/16 08:14:03;;;;;;;17.00;12.67;;;20.40;99.90;;;;;;4918037;29;20427;-72
2021/07/16 08:16:29;;;;;;;14.30;12.93;;;20.60;99.90;;;;;;4918540;29;20411;-72
2021/07/16 08:18:56;;;;;;;13.20;11.80;;;20.70;99.90;;;;;;4918529;29;20517;-72
2021/07/16 08:21:22;;;;;;;13.53;11.23;;;20.90;99.90;;;;;;4917895;29;20497;-72
2021/07/16 08:23:49;;;;;;;12.83;11.37;;;21.00;99.90;;;;;;4918450;29;20466;-72
2021/07/16 08:26:15;;;;;;;15.50;11.80;;;21.10;99.90;;;;;;4917886;29;20411;-72
2021/07/16 08:28:41;;;;;;;12.97;11.17;;;21.30;99.90;;;;;;4918302;29;20786;-72
2021/07/16 08:31:07;;;;;;;15.40;13.90;;;21.40;99.90;;;;;;4900630;29;20462;-72
2021/07/16 08:33:33;;;;;;;15.10;13.57;;;21.50;99.90;;;;;;4918438;29;20182;-72
2021/07/16 08:35:59;;;;;;;13.23;11.87;;;21.50;99.90;;;;;;4917190;29;20261;-71
2021/07/16 08:38:25;;;;;;;14.03;12.73;;;21.60;99.90;;;;;;4917576;29;20506;-72
2021/07/16 08:40:51;;;;;;;17.23;13.60;;;21.60;99.90;;;;;;4918009;29;20186;-71
2021/07/16 08:43:19;;;;;;;13.27;12.00;;;21.60;99.90;;;;;;4900213;29;20206;-72
2021/07/16 08:45:46;;;;;;;14.20;12.80;;;21.70;99.90;;;;;;4917622;29;20437;-72
2021/07/16 08:48:13;;;;;;;16.63;14.40;;;21.70;99.90;;;;;;4917462;29;20414;-72
2021/07/16 08:50:39;;;;;;;15.90;14.40;;;21.70;99.90;;;;;;4919552;29;20513;-71
2021/07/16 08:53:05;;;;;;;17.77;13.00;;;21.70;99.90;;;;;;4918203;29;20441;-71
2021/07/16 08:55:35;;;;;;;13.50;12.03;;;21.70;99.90;;;;;;4917913;29;20422;-72
2021/07/16 08:58:02;;;;;;;16.33;14.70;;;21.70;99.90;;;;;;4917489;29;20426;-72
2021/07/16 09:00:27;;;;;;;13.63;12.20;;;21.70;99.90;;;;;;4916306;29;20844;-72
2021/07/16 09:02:57;;;;;;;16.00;14.47;;;21.70;99.90;;;;;;4919737;29;20486;-71
2021/07/16 09:05:44;;;;;;;15.53;13.97;;;21.70;99.90;;;;;;4916995;29;20221;-72
2021/07/16 09:08:16;;;;;;;13.23;12.03;;;21.80;99.90;;;;;;4917102;29;20422;-71
2021/07/16 09:10:51;;;;;;;18.57;14.87;;;21.80;99.90;;;;;;4898982;29;20945;-72
2021/07/16 09:13:18;;;;;;;15.90;13.07;;;21.90;99.90;;;;;;4915031;29;20433;-76
2021/07/16 09:15:59;;;;;;;15.40;13.90;;;21.90;99.90;;;;;;4916141;29;20430;-72
2021/07/16 09:18:30;;;;;;;14.97;13.53;;;22.00;99.90;;;;;;4916544;29;20403;-75
2021/07/16 09:21:02;;;;;;;16.77;15.10;;;22.10;99.90;;;;;;4915994;29;20402;-74
2021/07/16 09:23:35;;;;;;;14.67;12.03;;;22.20;99.90;;;;;;4915417;29;20469;-75
2021/07/16 09:26:07;;;;;;;14.43;12.93;;;22.20;99.90;;;;;;4915825;29;20431;-72
2021/07/16 09:28:33;;;;;;;16.17;14.50;;;22.20;99.90;;;;;;4915961;29;20411;-72
2021/07/16 09:31:18;;;;;;;18.07;13.33;;;22.20;99.90;;;;;;4915589;29;20942;-72
2021/07/16 09:34:06;;;;;;;13.80;12.17;;;22.30;99.90;;;;;;4899044;29;20623;-72
2021/07/16 09:36:34;;;;;;;15.60;14.20;;;22.30;99.90;;;;;;4916632;29;20445;-72
2021/07/16 09:39:10;;;;;;;14.40;13.03;;;22.30;99.90;;;;;;4916680;29;20433;-71
2021/07/16 09:41:56;;;;;;;13.37;12.07;;;22.30;99.90;;;;;;4916748;29;20981;-71
2021/07/16 09:44:28;;;;;;;17.40;13.23;;;22.30;99.90;;;;;;4916413;29;20985;-71
2021/07/16 09:47:17;;;;;;;16.90;13.40;;;22.30;99.90;;;;;;4916794;29;20525;-71
2021/07/16 09:49:48;;;;;;;14.47;13.07;;;22.30;99.90;;;;;;4917005;29;20414;-71
2021/07/16 09:52:17;;;;;;;14.90;12.90;;;22.30;99.90;;;;;;4915228;29;20423;-71
2021/07/16 09:55:14;;;;;;;18.80;13.37;;;22.40;99.90;;;;;;4917177;29;20421;-72
2021/07/16 09:57:49;;;;;;;15.03;13.57;;;22.40;99.90;;;;;;4916438;29;20426;-72
2021/07/16 10:00:26;;;;;;;14.13;12.63;;;22.40;99.90;;;;;;4898647;29;20410;-73
2021/07/16 10:02:53;;;;;;;13.20;12.10;;;22.40;99.90;;;;;;4915502;29;20410;-72
2021/07/16 10:05:19;;;;;;;13.47;12.10;;;22.40;99.90;;;;;;4915392;29;20549;-72
2021/07/16 10:07:46;;;;;;;14.53;13.23;;;22.40;99.90;;;;;;4916167;29;20569;-72
2021/07/16 10:10:14;;;;;;;12.87;11.60;;;22.50;99.90;;;;;;4898568;29;20233;-72
2021/07/16 10:12:41;;;;;;;14.70;13.43;;;22.50;99.90;;;;;;4916545;29;20828;-73
2021/07/16 10:15:10;;;;;;;15.73;13.80;;;22.50;99.90;;;;;;4915623;29;20431;-81
2021/07/16 10:17:37;;;;;;;12.77;11.57;;;22.60;99.90;;;;;;4917973;29;20435;-71
2021/07/16 10:20:08;;;;;;;14.93;13.63;;;22.50;99.90;;;;;;4916658;29;20889;-72
2021/07/16 10:22:35;;;;;;;12.33;11.03;;;22.40;99.90;;;;;;4915906;29;20503;-75
2021/07/16 10:25:01;;;;;;;12.87;11.93;;;22.40;99.90;;;;;;4915945;29;20465;-71
2021/07/16 10:27:27;;;;;;;14.80;11.90;;;22.40;99.90;;;;;;4915460;29;20933;-71
2021/07/16 10:30:07;;;;;;;13.77;11.50;;;22.40;99.90;;;;;;4899666;29;20619;-71
2021/07/16 10:32:52;;;;;;;11.10;10.10;;;22.40;99.90;;;;;;4915285;29;20813;-72
2021/07/16 10:35:17;;;;;;;14.20;10.90;;;22.30;99.90;;;;;;4915089;29;20414;-71
2021/07/16 10:37:44;;;;;;;12.70;10.90;;;22.20;99.90;;;;;;4915682;29;20419;-72
2021/07/16 10:40:44;;;;;;;15.60;12.23;;;22.20;99.90;;;;;;4915341;29;20182;-71
2021/07/16 10:43:29;;;;;;;10.93;9.90;;;22.20;99.90;;;;;;4915558;29;20744;-72
2021/07/16 10:45:59;;;;;;;14.77;13.53;;;22.20;99.90;;;;;;4915785;29;20442;-72
2021/07/16 10:48:35;;;;;;;11.00;9.90;;;22.00;99.90;;;;;;4914592;29;20429;-71
2021/07/16 10:51:02;;;;;;;14.23;13.03;;;22.00;99.90;;;;;;4915512;29;20409;-72
2021/07/16 10:53:28;;;;;;;14.47;10.73;;;21.90;99.90;;;;;;4914698;29;20422;-72
2021/07/16 10:55:56;;;;;;;14.07;12.83;;;21.80;99.90;;;;;;4915396;29;20411;-72
2021/07/16 10:58:35;;;;;;;16.70;11.40;;;21.70;99.90;;;;;;4914926;29;20184;-72
2021/07/16 11:01:05;;;;;;;12.70;11.27;;;21.60;99.90;;;;;;4918846;29;20398;-73
2021/07/16 11:03:50;;;;;;;12.17;10.97;;;21.60;99.90;;;;;;4918028;29;20470;-73
2021/07/16 11:06:20;;;;;;;15.37;11.23;;;21.50;99.90;;;;;;4917809;29;20414;-73
2021/07/16 11:08:47;;;;;;;16.13;10.60;;;21.50;99.90;;;;;;4918351;29;20450;-72
2021/07/16 11:11:36;;;;;;;12.53;11.27;;;21.50;99.90;;;;;;4917526;29;20430;-80
2021/07/16 11:14:03;;;;;;;14.03;11.10;;;21.40;99.90;;;;;;4918508;29;20433;-72
2021/07/16 11:16:29;;;;;;;12.47;11.00;;;21.40;99.90;;;;;;4917640;29;20414;-72
2021/07/16 11:18:56;;;;;;;12.13;10.07;;;21.50;99.90;;;;;;4918361;29;20486;-72
2021/07/16 11:21:40;;;;;;;10.67;9.60;;;21.50;99.90;;;;;;4917589;29;20442;-73
2021/07/16 11:24:18;;;;;;;11.03;9.30;;;21.50;99.90;;;;;;4918014;29;20473;-72
2021/07/16 11:26:51;;;;;;;11.03;9.90;;;21.60;99.90;;;;;;4918461;29;20430;-72
2021/07/16 11:29:19;;;;;;;12.07;9.93;;;21.80;99.90;;;;;;4917880;29;20934;-71
2021/07/16 11:31:45;;;;;;;12.37;10.80;;;21.80;99.90;;;;;;4880564;29;1082404;-72
2021/07/16 11:34:15;;;;;;;13.00;10.73;;;21.90;99.90;;;;;;4917823;29;20218;-72
2021/07/16 11:36:52;;;;;;;12.43;10.80;;;21.90;99.90;;;;;;4917999;29;20619;-72
2021/07/16 11:39:34;;;;;;;11.70;10.63;;;21.90;99.90;;;;;;4917348;29;20403;-72
2021/07/16 11:42:04;;;;;;;11.57;10.40;;;21.90;99.90;;;;;;4901092;29;20966;-72
2021/07/16 11:44:38;;;;;;;11.50;10.30;;;21.90;99.90;;;;;;4917570;29;21074;-72
2021/07/16 11:47:25;;;;;;;13.30;10.00;;;21.90;99.90;;;;;;4919120;29;20407;-72
2021/07/16 11:49:53;;;;;;;10.83;9.70;;;21.90;99.90;;;;;;4919168;29;20418;-72
2021/07/16 11:52:21;;;;;;;10.70;9.60;;;21.90;99.90;;;;;;4918462;29;20443;-72
2021/07/16 11:54:46;;;;;;;13.67;10.33;;;21.80;99.90;;;;;;4918988;29;20414;-71
2021/07/16 11:57:15;;;;;;;16.47;10.47;;;21.80;99.90;;;;;;4918689;29;20434;-71
2021/07/16 11:59:50;;;;;;;10.90;9.87;;;21.80;99.90;;;;;;4918674;29;20175;-71
2021/07/16 12:02:23;;;;;;;12.13;10.20;;;21.80;99.90;;;;;;4918352;29;20436;-73
2021/07/16 12:04:59;;;;;;;11.77;10.57;;;21.80;99.90;;;;;;4918746;29;20487;-72
2021/07/16 12:07:25;;;;;;;14.50;13.00;;;21.80;99.90;;;;;;4899415;29;20962;-72
2021/07/16 12:09:51;;;;;;;11.80;10.27;;;21.80;99.90;;;;;;4899676;29;20920;-72
2021/07/16 12:12:23;;;;;;;14.77;10.40;;;21.80;99.90;;;;;;4899012;29;20419;-72
2021/07/16 12:15:06;;;;;;;14.30;12.33;;;21.80;99.90;;;;;;4899768;29;20437;-71
2021/07/16 12:17:50;;;;;;;14.90;11.47;;;21.80;99.90;;;;;;4884306;29;20408;-72
2021/07/16 12:20:17;;;;;;;13.07;11.60;;;21.80;99.90;;;;;;4916138;29;20523;-83
2021/07/16 12:22:44;;;;;;;14.47;12.27;;;21.80;99.90;;;;;;4918510;29;20414;-72
2021/07/16 12:25:13;;;;;;;14.00;12.60;;;21.80;99.90;;;;;;4918349;29;20516;-72
2021/07/16 12:27:39;;;;;;;13.33;11.93;;;21.80;99.90;;;;;;4917836;29;20425;-72
2021/07/16 12:30:07;;;;;;;13.50;12.17;;;21.80;99.90;;;;;;4918101;29;20793;-72
2021/07/16 12:32:40;;;;;;;14.80;12.40;;;21.80;99.90;;;;;;4906329;29;20828;-72
2021/07/16 12:35:18;;;;;;;23.40;15.80;;;21.70;99.90;;;;;;4917815;29;20501;-71